createdAt,value
2023-04-01T00:04:21.759Z,10.43
2023-04-01T00:09:23.231Z,10.48
2023-04-01T00:14:24.756Z,10.38
2023-04-01T00:19:26.523Z,10.19
2023-04-01T00:24:28.000Z,10.13
2023-04-01T00:29:31.497Z,10.18
2023-04-01T00:34:32.972Z,10.17
2023-04-01T00:39:35.554Z,10.24
2023-04-01T00:44:38.263Z,10.32
2023-04-01T00:49:46.091Z,10.36
2023-04-01T00:54:51.140Z,10.38
2023-04-01T00:59:55.873Z,10.45
2023-04-01T01:04:57.304Z,10.57
2023-04-01T01:10:17.807Z,10.62
2023-04-01T01:15:26.770Z,10.67
2023-04-01T01:20:34.207Z,10.66
2023-04-01T01:26:03.035Z,10.67
2023-04-01T01:31:18.592Z,10.70
2023-04-01T01:36:22.070Z,10.69
2023-04-01T01:41:27.648Z,10.72
2023-04-01T01:46:31.770Z,10.79
2023-04-01T01:51:33.413Z,10.95
2023-04-01T01:56:36.334Z,10.90
2023-04-01T02:01:43.111Z,10.86
2023-04-01T02:06:54.737Z,10.90
2023-04-01T02:12:05.036Z,10.85
2023-04-01T02:17:10.376Z,10.91
2023-04-01T02:22:17.436Z,10.84
2023-04-01T02:27:19.976Z,10.81
2023-04-01T02:32:21.815Z,10.77
2023-04-01T02:37:24.128Z,10.73
2023-04-01T02:42:25.991Z,10.71
2023-04-01T02:47:27.515Z,10.83
2023-04-01T02:52:30.339Z,10.78
2023-04-01T02:57:31.844Z,10.79
2023-04-01T03:02:33.440Z,10.72
2023-04-01T03:07:35.003Z,10.79
2023-04-01T03:12:36.948Z,10.83
2023-04-01T03:17:39.553Z,10.79
2023-04-01T03:22:42.969Z,10.73
2023-04-01T03:27:44.627Z,10.83
2023-04-01T03:32:46.089Z,10.80
2023-04-01T03:37:47.783Z,10.94
2023-04-01T03:42:49.980Z,10.75
2023-04-01T03:47:51.506Z,10.86
2023-04-01T03:52:52.931Z,10.87
2023-04-01T03:57:54.372Z,10.66
2023-04-01T04:02:57.545Z,10.50
2023-04-01T04:07:59.143Z,10.44
2023-04-01T04:13:00.771Z,10.54
2023-04-01T04:18:02.314Z,10.45
2023-04-01T04:23:03.789Z,10.52
2023-04-01T04:28:05.280Z,10.47
2023-04-01T04:33:06.746Z,10.40
2023-04-01T04:38:08.206Z,10.35
2023-04-01T04:43:14.678Z,10.30
2023-04-01T04:48:19.549Z,10.39
2023-04-01T04:53:21.167Z,10.29
2023-04-01T04:58:22.816Z,10.43
2023-04-01T05:03:24.491Z,10.29
2023-04-01T05:08:26.134Z,10.30
2023-04-01T05:13:28.198Z,10.23
2023-04-01T05:18:29.671Z,10.03
2023-04-01T05:23:33.146Z,10.20
2023-04-01T05:28:34.620Z,10.34
2023-04-01T05:33:36.275Z,10.32
2023-04-01T05:38:37.968Z,10.29
2023-04-01T05:43:40.675Z,10.40
2023-04-01T05:48:42.141Z,10.26
2023-04-01T05:53:43.963Z,10.42
2023-04-01T05:58:51.262Z,10.45
2023-04-01T06:03:52.950Z,10.46
2023-04-01T06:08:57.530Z,10.43
2023-04-01T06:14:42.963Z,10.53
2023-04-01T06:19:53.108Z,10.47
2023-04-01T06:25:19.053Z,10.40
2023-04-01T06:30:49.671Z,10.51
2023-04-01T06:35:59.708Z,10.60
2023-04-01T06:41:04.405Z,10.51
2023-04-01T06:46:11.857Z,10.64
2023-04-01T06:51:19.110Z,10.81
2023-04-01T06:56:23.796Z,10.78
2023-04-01T07:01:33.705Z,10.72
2023-04-01T07:06:48.045Z,10.72
2023-04-01T07:11:50.155Z,10.63
2023-04-01T07:17:02.216Z,10.79
2023-04-01T07:22:36.838Z,10.89
2023-04-01T07:27:38.260Z,10.74
2023-04-01T07:32:53.744Z,10.91
2023-04-01T07:38:41.390Z,11.07
2023-04-01T07:44:08.480Z,11.08
2023-04-01T07:49:22.186Z,11.37
2023-04-01T07:54:25.093Z,10.95
2023-04-01T07:59:34.483Z,11.23
2023-04-01T08:04:51.867Z,11.02
2023-04-01T08:10:21.217Z,11.14
2023-04-01T08:15:28.653Z,11.13
2023-04-01T08:20:48.426Z,11.18
2023-04-01T08:25:56.659Z,11.06
2023-04-01T08:31:13.545Z,11.56
2023-04-01T08:36:20.201Z,11.66
2023-04-01T08:41:42.105Z,11.57
2023-04-01T08:47:05.243Z,11.81
2023-04-01T08:52:19.514Z,11.70
2023-04-01T08:57:58.691Z,12.08
2023-04-01T09:03:21.808Z,12.32
2023-04-01T09:08:44.550Z,12.25
2023-04-01T09:14:00.836Z,12.30
2023-04-01T09:19:26.639Z,12.51
2023-04-01T09:24:44.938Z,12.47
2023-04-01T09:30:08.311Z,12.34
2023-04-01T09:35:15.681Z,12.06
2023-04-01T09:40:24.351Z,12.12
2023-04-01T09:45:47.307Z,12.41
2023-04-01T09:51:22.142Z,13.00
2023-04-01T09:56:33.789Z,13.28
2023-04-01T10:02:13.165Z,13.07
2023-04-01T10:07:33.203Z,13.27
2023-04-01T10:12:46.619Z,13.27
2023-04-01T10:18:09.260Z,13.38
2023-04-01T10:23:49.504Z,13.61
2023-04-01T10:29:12.013Z,13.37
2023-04-01T10:34:49.396Z,14.10
2023-04-01T10:40:26.983Z,13.78
2023-04-01T10:45:50.488Z,13.51
2023-04-01T10:51:10.562Z,13.34
2023-04-01T10:56:35.025Z,12.64
2023-04-01T11:02:10.031Z,12.26
2023-04-01T11:07:29.427Z,11.87
2023-04-01T11:12:49.386Z,12.15
2023-04-01T11:18:09.484Z,12.40
2023-04-01T11:23:21.144Z,12.97
2023-04-01T11:28:44.260Z,13.25
2023-04-01T11:34:02.843Z,13.01
2023-04-01T11:39:22.647Z,13.09
2023-04-01T11:44:28.432Z,12.83
2023-04-01T11:49:57.937Z,13.06
2023-04-01T11:55:24.212Z,13.22
2023-04-01T12:00:34.182Z,13.12
2023-04-01T12:05:48.702Z,13.09
2023-04-01T12:11:02.774Z,12.82
2023-04-01T12:16:13.402Z,12.83
2023-04-01T12:21:32.996Z,12.62
2023-04-01T12:27:11.478Z,12.84
2023-04-01T12:32:31.866Z,13.31
2023-04-01T12:38:03.618Z,13.49
2023-04-01T12:43:42.431Z,13.16
2023-04-01T12:48:54.794Z,12.90
2023-04-01T12:54:10.345Z,13.13
2023-04-01T12:59:55.892Z,13.11
2023-04-01T13:05:24.346Z,13.04
2023-04-01T13:11:01.384Z,13.13
2023-04-01T13:16:24.055Z,13.18
2023-04-01T13:21:52.728Z,13.11
2023-04-01T13:27:13.805Z,12.95
2023-04-01T13:32:44.271Z,12.69
2023-04-01T13:38:18.304Z,12.75
2023-04-01T13:43:26.986Z,12.93
2023-04-01T13:48:37.846Z,12.91
2023-04-01T13:53:48.323Z,12.96
2023-04-01T13:59:12.489Z,12.63
2023-04-01T14:04:45.662Z,12.33
2023-04-01T14:09:52.757Z,11.90
2023-04-01T14:15:00.214Z,12.00
2023-04-01T14:20:26.714Z,12.06
2023-04-01T14:25:56.251Z,12.04
2023-04-01T14:31:19.353Z,12.21
2023-04-01T14:36:48.203Z,12.25
2023-04-01T14:42:06.122Z,12.31
2023-04-01T14:47:22.990Z,12.31
2023-04-01T14:52:37.340Z,12.00
2023-04-01T14:57:38.884Z,11.93
2023-04-01T15:03:02.178Z,12.02
2023-04-01T15:08:10.695Z,12.20
2023-04-01T15:13:45.617Z,12.17
2023-04-01T15:19:11.730Z,12.27
2023-04-01T15:24:21.848Z,12.28
2023-04-01T15:29:43.841Z,12.48
2023-04-01T15:34:56.612Z,12.29
2023-04-01T15:40:23.566Z,12.26
2023-04-01T15:45:24.912Z,12.27
2023-04-01T15:50:32.474Z,12.29
2023-04-01T15:55:55.846Z,12.44
2023-04-01T16:01:04.196Z,12.55
2023-04-01T16:06:35.261Z,12.39
2023-04-01T16:11:48.933Z,12.33
2023-04-01T16:17:21.466Z,12.41
2023-04-01T16:22:46.162Z,12.48
2023-04-01T16:27:59.599Z,12.47
2023-04-01T16:33:01.467Z,12.44
2023-04-01T16:38:28.278Z,12.41
2023-04-01T16:43:40.293Z,12.28
2023-04-01T16:49:18.018Z,12.20
2023-04-01T16:54:22.107Z,12.19
2023-04-01T16:59:30.309Z,12.13
2023-04-01T17:04:39.440Z,12.07
2023-04-01T17:09:59.651Z,11.96
2023-04-01T17:15:23.392Z,11.96
2023-04-01T17:20:38.669Z,11.97
2023-04-01T17:25:50.097Z,11.93
2023-04-01T17:30:57.310Z,11.94
2023-04-01T17:36:26.359Z,12.04
2023-04-01T17:41:37.203Z,11.75
2023-04-01T17:47:29.471Z,11.82
2023-04-01T17:52:41.020Z,11.67
2023-04-01T17:57:54.371Z,11.70
2023-04-01T18:02:56.018Z,11.67
2023-04-01T18:08:34.202Z,11.68
2023-04-01T18:13:38.331Z,11.56
2023-04-01T18:19:17.595Z,11.38
2023-04-01T18:24:45.048Z,11.21
2023-04-01T18:30:00.732Z,11.01
2023-04-01T18:35:29.881Z,11.07
2023-04-01T18:40:35.281Z,11.06
2023-04-01T18:45:41.708Z,10.77
2023-04-01T18:50:57.884Z,10.81
2023-04-01T18:56:06.299Z,10.67
2023-04-01T19:01:35.856Z,10.75
2023-04-01T19:06:40.292Z,10.70
2023-04-01T19:11:55.547Z,10.66
2023-04-01T19:17:27.109Z,10.59
2023-04-01T19:22:35.690Z,10.60
2023-04-01T19:27:47.149Z,10.56
2023-04-01T19:33:23.179Z,10.53
2023-04-01T19:38:37.614Z,10.48
2023-04-01T19:43:53.869Z,10.40
2023-04-01T19:49:19.549Z,10.45
2023-04-01T19:54:20.906Z,10.36
2023-04-01T19:59:38.339Z,10.20
2023-04-01T20:04:43.120Z,10.24
2023-04-01T20:10:07.246Z,10.31
2023-04-01T20:15:30.865Z,10.17
2023-04-01T20:20:34.121Z,10.23
2023-04-01T20:25:53.873Z,10.11
2023-04-01T20:31:36.230Z,10.21
2023-04-01T20:36:57.003Z,10.14
2023-04-01T20:42:17.932Z,10.09
2023-04-01T20:47:31.483Z,10.08
2023-04-01T20:52:51.494Z,10.07
2023-04-01T20:58:20.561Z,10.05
2023-04-01T21:03:37.225Z,10.14
2023-04-01T21:08:58.066Z,9.97
2023-04-01T21:14:28.690Z,9.89
2023-04-01T21:19:42.267Z,9.91
2023-04-01T21:24:49.691Z,10.06
2023-04-01T21:29:56.755Z,9.72
2023-04-01T21:35:23.125Z,9.71
2023-04-01T21:41:02.034Z,9.54
2023-04-01T21:46:29.495Z,9.59
2023-04-01T21:52:08.059Z,9.52
2023-04-01T21:57:15.333Z,9.55
2023-04-01T22:02:22.811Z,9.40
2023-04-01T22:07:29.607Z,9.36
2023-04-01T22:12:48.924Z,9.21
2023-04-01T22:18:14.968Z,9.14
2023-04-01T22:23:31.798Z,9.07
2023-04-01T22:28:56.154Z,9.16
2023-04-01T22:34:17.864Z,9.16
2023-04-01T22:39:44.574Z,9.22
2023-04-01T22:44:46.090Z,9.09
2023-04-01T22:50:17.011Z,9.06
2023-04-01T22:55:24.988Z,9.02
2023-04-01T23:00:44.300Z,8.98
2023-04-01T23:06:06.204Z,8.98
2023-04-01T23:11:11.417Z,8.90
2023-04-01T23:16:13.813Z,8.83
2023-04-01T23:21:22.816Z,8.85
2023-04-01T23:26:41.533Z,8.77
2023-04-01T23:31:45.962Z,8.69
2023-04-01T23:36:50.882Z,8.53
2023-04-01T23:41:56.009Z,8.46
2023-04-01T23:47:00.266Z,8.50
2023-04-01T23:52:31.629Z,8.19
2023-04-01T23:57:36.128Z,8.23
